createdAt,value
2018-08-19T00:01:41.178Z,73.23
2018-08-19T00:03:46.332Z,73.58
2018-08-19T00:05:51.398Z,73.70
2018-08-19T00:07:56.600Z,73.93
2018-08-19T00:10:01.719Z,74.58
2018-08-19T00:12:07.032Z,74.24
2018-08-19T00:14:42.746Z,74.13
2018-08-19T00:16:47.816Z,74.82
2018-08-19T00:18:52.918Z,74.82
2018-08-19T00:20:58.796Z,75.71
2018-08-19T00:23:04.118Z,75.80
2018-08-19T00:25:10.814Z,75.00
2018-08-19T00:27:16.119Z,75.60
2018-08-19T00:29:26.419Z,75.45
2018-08-19T00:31:31.532Z,75.28
2018-08-19T00:33:36.798Z,75.31
2018-08-19T00:35:42.750Z,76.16
2018-08-19T00:37:48.061Z,76.17
2018-08-19T00:39:58.888Z,76.43
2018-08-19T00:42:05.183Z,76.77
2018-08-19T00:44:10.369Z,76.68
2018-08-19T00:46:26.828Z,76.91
2018-08-19T00:48:31.753Z,77.16
2018-08-19T00:50:36.917Z,77.46
2018-08-19T00:52:44.829Z,77.92
2018-08-19T00:54:49.742Z,77.23
2018-08-19T00:56:58.712Z,77.68
2018-08-19T00:59:04.426Z,77.25
2018-08-19T01:01:21.677Z,76.87
2018-08-19T01:03:26.517Z,76.70
2018-08-19T01:05:32.312Z,77.14
2018-08-19T01:07:37.819Z,77.58
2018-08-19T01:09:42.937Z,77.50
2018-08-19T01:11:48.221Z,77.71
2018-08-19T01:13:53.198Z,78.44
2018-08-19T01:15:58.256Z,78.23
2018-08-19T01:18:03.587Z,78.79
2018-08-19T01:20:09.483Z,78.88
2018-08-19T01:22:16.177Z,79.14
2018-08-19T01:24:21.889Z,79.91
2018-08-19T01:26:27.117Z,79.76
2018-08-19T01:28:32.804Z,80.20
2018-08-19T01:30:38.114Z,80.68
2018-08-19T01:32:43.258Z,80.53
2018-08-19T01:34:48.352Z,80.45
2018-08-19T01:36:53.396Z,80.82
2018-08-19T01:38:58.698Z,81.22
2018-08-19T01:41:03.705Z,81.49
2018-08-19T01:43:08.878Z,81.47
2018-08-19T01:45:14.178Z,81.07
2018-08-19T01:47:19.313Z,81.34
2018-08-19T01:49:24.300Z,81.76
2018-08-19T01:51:29.402Z,81.59
2018-08-19T01:53:34.304Z,81.56
2018-08-19T01:55:39.410Z,82.04
2018-08-19T01:57:45.930Z,81.81
2018-08-19T01:59:51.011Z,82.53
2018-08-19T02:02:03.698Z,82.96
2018-08-19T02:04:08.735Z,82.44
2018-08-19T02:06:13.762Z,82.98
2018-08-19T02:08:19.102Z,83.07
2018-08-19T02:10:25.484Z,83.19
2018-08-19T02:12:35.623Z,83.24
2018-08-19T02:14:40.471Z,83.31
2018-08-19T02:16:45.731Z,83.38
2018-08-19T02:18:50.580Z,83.43
2018-08-19T02:20:55.559Z,83.58
2018-08-19T02:23:01.747Z,83.44
2018-08-19T02:25:06.921Z,82.92
2018-08-19T02:27:12.772Z,83.28
2018-08-19T02:29:34.353Z,83.64
2018-08-19T02:31:39.494Z,83.85
2018-08-19T02:33:44.687Z,83.84
2018-08-19T02:36:00.749Z,83.92
2018-08-19T02:38:05.734Z,84.46
2018-08-19T02:40:17.694Z,84.09
2018-08-19T02:42:30.597Z,84.89
2018-08-19T02:44:35.748Z,85.14
2018-08-19T02:46:40.936Z,85.37
2018-08-19T02:48:50.785Z,84.95
2018-08-19T02:50:55.995Z,86.02
2018-08-19T02:53:01.289Z,85.32
2018-08-19T02:55:08.093Z,85.34
2018-08-19T02:57:13.504Z,84.62
2018-08-19T02:59:19.579Z,84.60
2018-08-19T03:01:24.781Z,84.87
2018-08-19T03:03:30.030Z,85.36
2018-08-19T03:05:35.716Z,85.48
2018-08-19T03:07:40.999Z,85.90
2018-08-19T03:09:46.493Z,85.44
2018-08-19T03:12:06.810Z,85.15
2018-08-19T03:14:12.011Z,85.25
2018-08-19T03:16:17.181Z,85.12
2018-08-19T03:18:22.369Z,85.28
2018-08-19T03:20:27.951Z,85.31
2018-08-19T03:22:33.022Z,86.05
2018-08-19T03:24:38.243Z,85.94
2018-08-19T03:26:43.604Z,85.42
2018-08-19T03:28:49.070Z,85.91
2018-08-19T03:30:59.246Z,86.07
2018-08-19T03:33:04.268Z,86.55
2018-08-19T03:35:13.387Z,86.27
2018-08-19T03:37:18.780Z,86.42
2018-08-19T03:39:24.814Z,86.70
2018-08-19T03:41:29.639Z,86.63
2018-08-19T03:43:34.674Z,86.73
2018-08-19T03:45:40.675Z,86.89
2018-08-19T03:47:45.841Z,86.73
2018-08-19T03:49:52.103Z,87.01
2018-08-19T03:51:57.244Z,86.88
2018-08-19T03:54:02.115Z,86.42
2018-08-19T03:56:07.832Z,86.70
2018-08-19T03:58:12.977Z,86.82
2018-08-19T04:00:19.243Z,86.77
2018-08-19T04:02:24.193Z,86.02
2018-08-19T04:04:29.232Z,86.43
2018-08-19T04:06:34.883Z,85.77
2018-08-19T04:08:46.017Z,85.38
2018-08-19T04:10:50.916Z,85.85
2018-08-19T04:12:55.846Z,85.54
2018-08-19T04:15:00.899Z,85.19
2018-08-19T04:17:07.212Z,85.42
2018-08-19T04:19:12.340Z,84.48
2018-08-19T04:21:18.266Z,84.64
2018-08-19T04:23:23.288Z,84.90
2018-08-19T04:25:33.666Z,85.45
2018-08-19T04:27:38.691Z,85.50
2018-08-19T04:29:43.825Z,86.07
2018-08-19T04:31:48.784Z,85.82
2018-08-19T04:33:54.849Z,86.32
2018-08-19T04:35:59.950Z,85.93
2018-08-19T04:38:04.879Z,86.87
2018-08-19T04:40:09.959Z,86.96
2018-08-19T04:42:15.176Z,87.32
2018-08-19T04:44:20.338Z,86.76
2018-08-19T04:46:25.477Z,86.84
2018-08-19T04:48:30.918Z,87.34
2018-08-19T04:50:35.830Z,87.34
2018-08-19T04:52:40.845Z,87.19
2018-08-19T04:54:45.886Z,87.64
2018-08-19T04:56:51.335Z,86.95
2018-08-19T04:58:58.483Z,86.96
2018-08-19T05:01:03.436Z,87.11
2018-08-19T05:03:08.331Z,87.01
2018-08-19T05:05:13.471Z,86.65
2018-08-19T05:07:18.575Z,86.93
2018-08-19T05:09:23.966Z,86.66
2018-08-19T05:11:36.346Z,87.04
2018-08-19T05:13:41.711Z,86.64
2018-08-19T05:15:46.956Z,85.93
2018-08-19T05:17:52.018Z,85.98
2018-08-19T05:20:16.518Z,86.17
2018-08-19T05:22:21.876Z,85.70
2018-08-19T05:24:26.906Z,85.99
2018-08-19T05:26:31.917Z,86.31
2018-08-19T05:28:36.762Z,85.67
2018-08-19T05:30:41.707Z,85.23
2018-08-19T05:32:50.599Z,85.52
2018-08-19T05:34:56.275Z,85.32
2018-08-19T05:37:02.765Z,84.92
2018-08-19T05:39:09.096Z,85.29
2018-08-19T05:41:13.969Z,84.94
2018-08-19T05:43:19.108Z,85.13
2018-08-19T05:45:24.212Z,85.58
2018-08-19T05:47:29.247Z,85.34
2018-08-19T05:49:36.854Z,84.58
2018-08-19T05:51:41.869Z,85.14
2018-08-19T05:53:51.939Z,84.46
2018-08-19T05:55:56.866Z,84.05
2018-08-19T05:58:01.888Z,84.26
2018-08-19T06:00:12.166Z,84.45
2018-08-19T06:02:18.075Z,83.78
2018-08-19T06:04:23.025Z,83.77
2018-08-19T06:06:27.902Z,84.24
2018-08-19T06:08:32.824Z,84.06
2018-08-19T06:10:37.815Z,84.21
2018-08-19T06:12:43.046Z,83.40
2018-08-19T06:14:47.995Z,83.17
2018-08-19T06:16:52.900Z,83.27
2018-08-19T06:18:57.929Z,82.50
2018-08-19T06:21:02.849Z,82.00
2018-08-19T06:23:08.149Z,82.26
2018-08-19T06:25:13.751Z,82.04
2018-08-19T06:27:18.783Z,81.43
2018-08-19T06:29:38.418Z,81.24
2018-08-19T06:31:43.494Z,80.65
2018-08-19T06:33:48.923Z,80.45
2018-08-19T06:35:54.184Z,79.25
2018-08-19T06:38:01.644Z,78.67
2018-08-19T06:40:11.368Z,77.73
2018-08-19T06:42:16.535Z,76.71
2018-08-19T06:44:21.782Z,77.15
2018-08-19T06:46:27.036Z,76.93
2018-08-19T06:48:32.911Z,76.91
2018-08-19T06:50:38.254Z,76.33
2018-08-19T06:52:43.547Z,76.15
2018-08-19T06:54:48.811Z,74.74
2018-08-19T06:56:55.370Z,72.99
2018-08-19T06:59:03.481Z,72.90
2018-08-19T07:01:11.683Z,73.32
2018-08-19T07:03:19.154Z,71.87
2018-08-19T07:05:27.711Z,70.26
2018-08-19T07:07:34.293Z,69.99
2018-08-19T07:09:40.550Z,69.17
2018-08-19T07:12:00.877Z,67.24
2018-08-19T07:14:06.482Z,67.47
2018-08-19T07:16:11.745Z,66.92
2018-08-19T07:18:22.338Z,65.46
2018-08-19T07:20:27.542Z,65.01
2018-08-19T07:22:34.057Z,65.19
2018-08-19T07:24:40.781Z,64.82
2018-08-19T07:29:01.047Z,63.54
2018-08-19T07:31:06.923Z,61.94
2018-08-19T07:33:13.488Z,61.16
2018-08-19T07:35:18.580Z,60.06
2018-08-19T07:37:23.535Z,57.90
2018-08-19T07:39:30.542Z,59.94
2018-08-19T07:41:36.357Z,58.97
2018-08-19T07:43:42.167Z,59.19
2018-08-19T07:45:47.597Z,59.77
2018-08-19T07:47:52.936Z,59.99
2018-08-19T07:49:58.911Z,59.32
2018-08-19T07:52:04.243Z,58.64
2018-08-19T07:54:09.277Z,58.21
2018-08-19T07:56:14.469Z,59.29
2018-08-19T07:58:36.904Z,59.55
2018-08-19T08:00:42.337Z,58.50
2018-08-19T08:02:47.450Z,57.16
2018-08-19T08:04:55.223Z,57.87
2018-08-19T08:07:02.506Z,57.90
2018-08-19T08:09:12.480Z,59.82
2018-08-19T08:11:17.914Z,58.09
2018-08-19T08:13:23.465Z,58.85
2018-08-19T08:15:28.677Z,57.97
2018-08-19T08:17:34.740Z,57.78
2018-08-19T08:19:46.756Z,56.85
2018-08-19T08:21:52.927Z,58.47
2018-08-19T08:23:58.888Z,57.55
2018-08-19T08:26:03.833Z,58.98
2018-08-19T08:28:09.815Z,57.98
2018-08-19T08:30:15.075Z,58.23
2018-08-19T08:32:20.196Z,57.12
2018-08-19T08:34:26.730Z,58.24
2018-08-19T08:36:31.630Z,57.59
2018-08-19T08:38:36.889Z,57.97
2018-08-19T08:40:42.572Z,58.00
2018-08-19T08:42:47.835Z,58.02
2018-08-19T08:44:52.911Z,58.92
2018-08-19T08:47:01.164Z,58.22
2018-08-19T08:49:06.404Z,57.99
2018-08-19T08:51:11.605Z,57.20
2018-08-19T08:53:16.936Z,56.66
2018-08-19T08:55:21.901Z,55.91
2018-08-19T08:57:28.127Z,53.91
2018-08-19T08:59:33.167Z,53.82
2018-08-19T09:01:38.191Z,54.02
2018-08-19T09:03:43.263Z,52.97
2018-08-19T09:05:48.523Z,53.33
2018-08-19T09:07:53.446Z,54.19
2018-08-19T09:09:58.916Z,53.50
2018-08-19T09:12:03.854Z,52.68
2018-08-19T09:14:08.926Z,52.59
2018-08-19T09:16:13.888Z,52.83
2018-08-19T09:18:18.966Z,52.63
2018-08-19T09:20:24.056Z,51.69
2018-08-19T09:22:30.128Z,51.45
2018-08-19T09:24:35.205Z,51.85
2018-08-19T09:26:40.171Z,51.08
2018-08-19T09:28:45.457Z,51.56
2018-08-19T09:30:52.597Z,51.70
2018-08-19T09:33:02.123Z,50.97
2018-08-19T09:35:07.139Z,49.54
2018-08-19T09:37:12.094Z,51.77
2018-08-19T09:39:17.295Z,51.56
2018-08-19T09:41:23.269Z,51.83
2018-08-19T09:43:28.631Z,52.59
2018-08-19T09:45:33.660Z,53.74
2018-08-19T09:47:38.775Z,52.87
2018-08-19T09:49:44.112Z,53.34
2018-08-19T09:51:53.979Z,53.20
2018-08-19T09:53:59.364Z,54.57
2018-08-19T09:56:09.286Z,52.91
2018-08-19T09:58:19.176Z,52.86
2018-08-19T10:00:27.435Z,52.36
2018-08-19T10:02:36.361Z,52.96
2018-08-19T10:04:41.176Z,52.34
2018-08-19T10:06:46.400Z,51.70
2018-08-19T10:08:51.345Z,52.05
2018-08-19T10:10:56.239Z,54.35
2018-08-19T10:13:01.165Z,53.56
2018-08-19T10:15:06.052Z,53.07
2018-08-19T10:17:11.333Z,52.36
2018-08-19T10:19:16.791Z,53.56
2018-08-19T10:21:21.803Z,53.00
2018-08-19T10:23:26.652Z,52.70
2018-08-19T10:25:31.513Z,52.35
2018-08-19T10:27:36.342Z,52.43
2018-08-19T10:29:41.247Z,51.50
2018-08-19T10:31:50.792Z,52.10
2018-08-19T10:33:55.918Z,52.61
2018-08-19T10:36:00.848Z,53.68
2018-08-19T10:38:06.269Z,53.39
2018-08-19T10:40:11.304Z,53.33
2018-08-19T10:42:24.242Z,52.14
2018-08-19T10:44:29.901Z,52.59
2018-08-19T10:46:34.886Z,53.88
2018-08-19T10:48:39.961Z,53.31
2018-08-19T10:50:45.002Z,52.67
2018-08-19T10:52:50.876Z,51.61
2018-08-19T10:54:57.840Z,52.00
2018-08-19T10:57:15.049Z,52.07
2018-08-19T10:59:21.341Z,51.61
2018-08-19T11:01:26.334Z,51.15
2018-08-19T11:03:32.942Z,51.43
2018-08-19T11:05:42.840Z,50.93
2018-08-19T11:07:48.628Z,52.27
2018-08-19T11:10:15.227Z,50.38
2018-08-19T11:12:20.592Z,51.59
2018-08-19T11:14:26.293Z,51.45
2018-08-19T11:16:31.301Z,51.22
2018-08-19T11:18:41.556Z,51.13
2018-08-19T11:20:49.662Z,52.14
2018-08-19T11:22:55.151Z,50.92
2018-08-19T11:25:00.146Z,51.33
2018-08-19T11:27:06.252Z,51.23
2018-08-19T11:29:11.156Z,51.90
2018-08-19T11:31:36.335Z,50.94
2018-08-19T11:33:43.426Z,50.48
2018-08-19T11:35:48.456Z,51.27
2018-08-19T11:37:53.643Z,51.07
2018-08-19T11:39:58.582Z,51.31
2018-08-19T11:42:03.484Z,50.33
2018-08-19T11:44:10.952Z,49.73
2018-08-19T11:46:16.440Z,50.58
2018-08-19T11:48:21.379Z,50.35
2018-08-19T11:50:26.402Z,50.97
2018-08-19T11:52:31.647Z,51.33
2018-08-19T11:54:36.619Z,49.45
2018-08-19T11:56:44.417Z,49.58
2018-08-19T11:58:49.316Z,49.88
2018-08-19T12:00:59.342Z,49.13
2018-08-19T12:03:04.223Z,50.29
2018-08-19T12:05:09.186Z,50.60
2018-08-19T12:07:14.173Z,50.99
2018-08-19T12:09:19.260Z,49.23
2018-08-19T12:11:30.274Z,49.24
2018-08-19T12:13:35.238Z,49.24
2018-08-19T12:15:40.117Z,48.92
2018-08-19T12:17:45.322Z,49.70
2018-08-19T12:19:50.515Z,48.83
2018-08-19T12:21:57.733Z,47.34
2018-08-19T12:24:31.442Z,47.66
2018-08-19T12:26:40.933Z,47.69
2018-08-19T12:28:46.520Z,48.27
2018-08-19T12:30:51.640Z,48.67
2018-08-19T12:33:13.173Z,47.57
2018-08-19T12:35:18.188Z,47.41
2018-08-19T12:37:24.439Z,47.68
2018-08-19T12:39:29.364Z,46.90
2018-08-19T12:41:42.936Z,47.53
2018-08-19T12:43:51.859Z,47.54
2018-08-19T12:46:00.808Z,47.60
2018-08-19T12:48:06.229Z,47.27
2018-08-19T12:50:15.046Z,46.89
2018-08-19T12:52:23.270Z,46.74
2018-08-19T12:54:28.212Z,47.41
2018-08-19T12:56:33.486Z,47.92
2018-08-19T12:58:39.549Z,47.57
2018-08-19T13:00:46.406Z,46.90
2018-08-19T13:02:52.814Z,46.25
2018-08-19T13:04:58.718Z,46.35
2018-08-19T13:07:14.732Z,46.30
2018-08-19T13:09:20.214Z,45.72
2018-08-19T13:11:25.177Z,46.98
2018-08-19T13:13:30.661Z,46.31
2018-08-19T13:15:35.777Z,45.06
2018-08-19T13:17:40.846Z,45.84
2018-08-19T13:19:54.977Z,46.28
2018-08-19T13:22:01.081Z,46.99
2018-08-19T13:24:06.181Z,45.73
2018-08-19T13:26:11.335Z,46.34
2018-08-19T13:32:01.941Z,44.61
2018-08-19T13:34:10.786Z,44.42
2018-08-19T13:36:18.477Z,44.98
2018-08-19T13:38:39.022Z,45.04
2018-08-19T13:40:47.553Z,44.16
2018-08-19T13:42:55.538Z,44.82
2018-08-19T13:45:05.888Z,45.46
2018-08-19T13:49:30.316Z,45.33
2018-08-19T13:51:35.177Z,46.61
2018-08-19T13:53:40.043Z,45.50
2018-08-19T13:55:45.038Z,44.20
2018-08-19T13:57:51.210Z,43.85
2018-08-19T13:59:56.227Z,43.51
2018-08-19T14:02:01.098Z,44.56
2018-08-19T14:04:06.161Z,44.36
2018-08-19T14:06:10.985Z,44.19
2018-08-19T14:08:15.863Z,44.16
2018-08-19T14:10:21.781Z,42.89
2018-08-19T14:12:26.590Z,43.06
2018-08-19T14:14:31.503Z,43.13
2018-08-19T14:16:36.498Z,42.38
2018-08-19T14:18:41.937Z,42.64
2018-08-19T14:20:46.875Z,43.96
2018-08-19T14:22:51.848Z,42.43
2018-08-19T14:24:56.677Z,43.48
2018-08-19T14:27:01.613Z,43.41
2018-08-19T14:29:06.620Z,43.48
2018-08-19T14:31:11.790Z,44.14
2018-08-19T14:33:16.874Z,42.79
2018-08-19T14:35:22.296Z,42.62
2018-08-19T14:37:28.167Z,43.61
2018-08-19T14:39:33.677Z,43.96
2018-08-19T14:41:38.712Z,44.68
2018-08-19T14:44:02.401Z,44.29
2018-08-19T14:46:07.553Z,44.03
2018-08-19T14:48:13.168Z,44.23
2018-08-19T14:50:20.631Z,45.26
2018-08-19T14:52:27.279Z,44.93
2018-08-19T14:54:32.266Z,44.64
2018-08-19T14:56:38.664Z,43.62
2018-08-19T14:58:46.045Z,43.22
2018-08-19T15:00:52.354Z,43.63
2018-08-19T15:02:57.293Z,44.85
2018-08-19T15:05:02.839Z,44.31
2018-08-19T15:07:08.313Z,44.32
2018-08-19T15:09:34.759Z,44.25
2018-08-19T15:11:40.081Z,44.54
2018-08-19T15:13:45.429Z,44.77
2018-08-19T15:15:50.362Z,44.79
2018-08-19T15:18:00.142Z,44.39
2018-08-19T15:20:05.190Z,43.74
2018-08-19T15:22:10.266Z,43.64
2018-08-19T15:24:15.425Z,44.00
2018-08-19T15:26:20.714Z,43.93
2018-08-19T15:28:25.764Z,44.33
2018-08-19T15:30:30.662Z,43.75
2018-08-19T15:32:36.108Z,43.95
2018-08-19T15:34:40.928Z,44.30
2018-08-19T15:36:46.059Z,45.09
2018-08-19T15:38:51.358Z,43.97
2018-08-19T15:40:56.419Z,44.73
2018-08-19T15:43:01.333Z,43.13
2018-08-19T15:45:06.414Z,44.42
2018-08-19T15:47:11.386Z,43.72
2018-08-19T15:49:16.867Z,45.12
2018-08-19T15:51:22.167Z,43.99
2018-08-19T15:53:28.431Z,44.22
2018-08-19T15:55:33.727Z,43.63
2018-08-19T15:57:38.977Z,41.46
2018-08-19T15:59:43.957Z,40.77
2018-08-19T16:01:49.304Z,38.83
2018-08-19T16:04:00.146Z,38.92
2018-08-19T16:06:05.274Z,39.35
2018-08-19T16:08:10.164Z,38.45
2018-08-19T16:10:16.233Z,37.94
2018-08-19T16:12:21.337Z,37.83
2018-08-19T16:14:28.172Z,39.22
2018-08-19T16:16:33.355Z,37.04
2018-08-19T16:18:38.272Z,37.72
2018-08-19T16:20:50.129Z,39.30
2018-08-19T16:22:55.022Z,36.89
2018-08-19T16:25:00.054Z,36.60
2018-08-19T16:27:05.524Z,37.05
2018-08-19T16:29:10.646Z,39.64
2018-08-19T16:31:15.560Z,37.79
2018-08-19T16:33:20.582Z,37.41
2018-08-19T16:35:27.069Z,35.88
2018-08-19T16:37:32.195Z,37.97
2018-08-19T16:39:37.189Z,38.02
2018-08-19T16:41:42.160Z,37.95
2018-08-19T16:43:47.313Z,38.14
2018-08-19T16:45:52.686Z,40.18
2018-08-19T16:47:57.537Z,39.92
2018-08-19T16:50:02.786Z,41.07
2018-08-19T16:52:07.643Z,41.76
2018-08-19T16:54:12.506Z,41.68
2018-08-19T16:56:20.285Z,41.05
2018-08-19T16:58:25.269Z,41.34
2018-08-19T17:00:31.150Z,42.04
2018-08-19T17:02:38.719Z,42.30
2018-08-19T17:04:45.492Z,41.77
2018-08-19T17:06:51.572Z,41.11
2018-08-19T17:08:56.658Z,41.86
2018-08-19T17:11:02.266Z,42.42
2018-08-19T17:13:07.333Z,42.40
2018-08-19T17:15:12.317Z,43.10
2018-08-19T17:17:17.353Z,42.13
2018-08-19T17:19:23.108Z,42.65
2018-08-19T17:21:29.106Z,43.17
2018-08-19T17:23:36.207Z,44.75
2018-08-19T17:25:41.789Z,45.34
2018-08-19T17:27:49.888Z,45.12
2018-08-19T17:29:55.304Z,45.69
2018-08-19T17:32:00.435Z,46.15
2018-08-19T17:34:14.570Z,46.50
2018-08-19T17:36:26.822Z,46.70
2018-08-19T17:38:34.415Z,46.88
2018-08-19T17:40:39.881Z,46.08
2018-08-19T17:42:46.399Z,46.40
2018-08-19T17:44:51.780Z,47.75
2018-08-19T17:46:58.394Z,47.93
2018-08-19T17:49:03.988Z,47.62
2018-08-19T17:51:26.598Z,47.76
2018-08-19T17:53:32.128Z,49.30
2018-08-19T17:55:37.072Z,48.99
2018-08-19T17:57:42.141Z,49.13
2018-08-19T17:59:48.404Z,50.17
2018-08-19T18:01:53.801Z,49.87
2018-08-19T18:03:58.683Z,50.08
2018-08-19T18:06:05.089Z,51.09
2018-08-19T18:08:11.194Z,51.18
2018-08-19T18:10:18.576Z,50.16
2018-08-19T18:12:25.636Z,49.74
2018-08-19T18:14:34.093Z,50.24
2018-08-19T18:16:41.155Z,51.82
2018-08-19T18:18:49.731Z,51.39
2018-08-19T18:20:57.694Z,50.83
2018-08-19T18:23:07.459Z,52.06
2018-08-19T18:25:18.151Z,51.82
2018-08-19T18:27:28.261Z,51.46
2018-08-19T18:29:49.049Z,52.72
2018-08-19T18:32:01.979Z,53.01
2018-08-19T18:34:20.267Z,53.20
2018-08-19T18:36:31.327Z,52.91
2018-08-19T18:38:44.876Z,53.51
2018-08-19T18:40:50.798Z,52.83
2018-08-19T18:42:57.608Z,53.24
2018-08-19T18:45:11.871Z,53.61
2018-08-19T18:47:22.093Z,54.86
2018-08-19T18:49:32.566Z,54.39
2018-08-19T18:51:42.745Z,54.41
2018-08-19T18:53:51.991Z,55.08
2018-08-19T18:56:03.187Z,54.64
2018-08-19T18:58:14.440Z,55.05
2018-08-19T19:00:26.228Z,56.66
2018-08-19T19:02:35.667Z,56.63
2018-08-19T19:04:46.381Z,57.12
2018-08-19T19:06:56.729Z,56.13
2018-08-19T19:09:06.206Z,57.12
2018-08-19T19:11:29.880Z,56.83
2018-08-19T19:13:51.489Z,56.98
2018-08-19T19:16:01.395Z,57.00
2018-08-19T19:18:14.334Z,57.08
2018-08-19T19:20:23.838Z,57.52
2018-08-19T19:22:34.429Z,58.00
2018-08-19T19:24:44.556Z,58.66
2018-08-19T19:26:55.814Z,58.37
2018-08-19T19:29:09.876Z,58.77
2018-08-19T19:31:32.555Z,58.75
2018-08-19T19:33:43.725Z,59.07
2018-08-19T19:36:01.866Z,59.29
2018-08-19T19:38:32.512Z,59.46
2018-08-19T19:40:47.402Z,59.23
2018-08-19T19:42:59.354Z,58.11
2018-08-19T19:45:10.411Z,58.91
2018-08-19T19:47:27.136Z,58.82
2018-08-19T19:49:45.051Z,58.46
2018-08-19T19:52:13.758Z,57.99
2018-08-19T19:54:39.597Z,59.16
2018-08-19T19:57:17.579Z,59.36
2018-08-19T19:59:31.963Z,58.70
2018-08-19T20:01:41.646Z,59.28
2018-08-19T20:04:11.467Z,59.42
2018-08-19T20:06:34.767Z,59.05
2018-08-19T20:08:44.255Z,60.52
2018-08-19T20:10:53.504Z,60.27
2018-08-19T20:13:02.178Z,60.73
2018-08-19T20:15:09.999Z,59.93
2018-08-19T20:17:21.292Z,59.72
2018-08-19T20:19:29.984Z,60.74
2018-08-19T20:21:37.146Z,60.81
2018-08-19T20:23:52.008Z,60.86
2018-08-19T20:26:05.051Z,61.36
2018-08-19T20:28:18.071Z,62.71
2018-08-19T20:30:31.300Z,61.54
2018-08-19T20:32:50.554Z,61.07
2018-08-19T20:35:05.918Z,62.60
2018-08-19T20:37:22.424Z,62.03
2018-08-19T20:39:43.493Z,63.21
2018-08-19T20:41:59.235Z,64.13
2018-08-19T20:44:16.830Z,64.33
2018-08-19T20:46:42.919Z,63.80
2018-08-19T20:48:54.778Z,64.46
2018-08-19T20:51:07.736Z,63.92
2018-08-19T20:53:21.757Z,63.99
2018-08-19T20:55:33.723Z,65.52
2018-08-19T20:57:47.127Z,64.62
2018-08-19T21:00:03.197Z,65.12
2018-08-19T21:02:16.273Z,66.11
2018-08-19T21:04:24.736Z,66.47
2018-08-19T21:06:33.524Z,65.87
2018-08-19T21:08:42.675Z,66.11
2018-08-19T21:10:49.790Z,67.08
2018-08-19T21:13:04.308Z,67.14
2018-08-19T21:15:13.203Z,66.78
2018-08-19T21:17:23.753Z,67.04
2018-08-19T21:19:39.662Z,67.36
2018-08-19T21:21:50.056Z,67.10
2018-08-19T21:23:59.581Z,68.37
2018-08-19T21:26:23.692Z,67.78
2018-08-19T21:28:30.934Z,68.27
2018-08-19T21:30:36.552Z,67.81
2018-08-19T21:32:45.063Z,68.82
2018-08-19T21:34:55.197Z,68.19
2018-08-19T21:37:04.396Z,68.22
2018-08-19T21:39:13.826Z,67.62
2018-08-19T21:41:19.103Z,67.71
2018-08-19T21:43:30.445Z,67.70
2018-08-19T21:45:37.618Z,67.37
2018-08-19T21:47:43.455Z,68.11
2018-08-19T21:50:10.773Z,68.22
2018-08-19T21:52:38.872Z,68.58
2018-08-19T21:55:01.577Z,68.10
2018-08-19T21:57:27.829Z,68.11
2018-08-19T21:59:32.614Z,68.04
2018-08-19T22:01:37.895Z,67.64
2018-08-19T22:03:50.029Z,67.77
2018-08-19T22:05:54.950Z,68.11
2018-08-19T22:07:59.981Z,68.16
2018-08-19T22:10:05.306Z,67.77
2018-08-19T22:12:10.240Z,66.52
2018-08-19T22:14:16.170Z,66.79
2018-08-19T22:16:21.230Z,66.06
2018-08-19T22:18:30.569Z,66.25
2018-08-19T22:20:36.674Z,65.00
2018-08-19T22:22:41.623Z,65.67
2018-08-19T22:24:46.571Z,66.34
2018-08-19T22:26:51.385Z,66.16
2018-08-19T22:29:14.278Z,66.21
2018-08-19T22:31:28.237Z,66.30
2018-08-19T22:33:33.112Z,66.04
2018-08-19T22:35:38.146Z,65.60
2018-08-19T22:37:43.223Z,65.72
2018-08-19T22:39:49.077Z,66.11
2018-08-19T22:41:53.912Z,66.91
2018-08-19T22:43:58.992Z,65.84
2018-08-19T22:46:03.996Z,66.81
2018-08-19T22:48:09.041Z,66.28
2018-08-19T22:50:13.914Z,66.82
2018-08-19T22:52:24.135Z,67.01
2018-08-19T22:56:48.991Z,66.51
2018-08-19T22:58:53.876Z,66.61
2018-08-19T23:00:59.262Z,66.53
2018-08-19T23:03:04.365Z,67.08
2018-08-19T23:05:09.188Z,66.72
2018-08-19T23:07:14.052Z,67.10
2018-08-19T23:09:19.100Z,66.58
2018-08-19T23:11:25.995Z,66.86
2018-08-19T23:15:54.631Z,66.97
2018-08-19T23:17:59.675Z,66.60
2018-08-19T23:20:04.694Z,66.74
2018-08-19T23:22:09.653Z,67.03
2018-08-19T23:24:14.498Z,66.29
2018-08-19T23:26:19.620Z,66.37
2018-08-19T23:28:25.159Z,66.55
2018-08-19T23:30:30.112Z,66.90
2018-08-19T23:32:35.141Z,66.84
2018-08-19T23:34:40.100Z,66.21
2018-08-19T23:36:45.423Z,66.42
2018-08-19T23:38:50.304Z,67.30
2018-08-19T23:40:55.494Z,66.11
2018-08-19T23:43:00.366Z,66.58
2018-08-19T23:45:05.869Z,65.61
2018-08-19T23:47:11.037Z,64.05
2018-08-19T23:49:16.070Z,64.70
2018-08-19T23:51:26.860Z,65.31
2018-08-19T23:53:31.800Z,65.22
2018-08-19T23:55:37.161Z,65.45
2018-08-19T23:57:42.006Z,65.83
2018-08-19T23:59:47.873Z,66.61
